Sherburne, NY (13460)

11:35 PM EDT on September 29, 2016 (GMT -0400)
APRSWXNET | | Change Station

Elev 1055 ft 42.69 °N, 75.50 °W | Updated 30 minutes ago

Scattered Clouds
Scattered Clouds
57 °F
Feels Like 57 °F
N
0
Wind Variable Wind from ESE
Gusts 4.0 mph

Today
High -- | Low -- °F
--% Chance of Precip.
Yesterday
High -- | Low -- °F
Precip. -- in
Pressure 30.36 in
Visibility 10.0 miles
Clouds Scattered Clouds 12000 ft
Dew Point 47 °F
Humidity 69%
Rainfall in
Snow Depth Not available.
6:57 AM 6:45 PM
Waning Crescent, 1% visible
METAR KN03 300315Z AUTO 07006KT 10SM SCT120 13/08 A3036 RMK AO2
Pressure 30.36 in
Visibility 10.0 miles
Clouds Scattered Clouds 12000 ft
Dew Point 47 °F
Humidity 69%
Rainfall in
Snow Depth Not available.
6:57 AM 6:45 PM
Waning Crescent, 1% visible
METAR KN03 300315Z AUTO 07006KT 10SM SCT120 13/08 A3036 RMK AO2

10-Day Weather Forecast

Almanac

Astronomy

Sep. 29, 2016 Rise Set
Actual Time
Civil Twilight
Nautical Twilight
Astronomical Twilight
Moon
Length of Visible Light
Length of Day
Tomorrow will be .
, % of the Moon is Illuminated

Today's Extremes

State Highs State Lows

Community

WunderPhotos

Upload Photos

1,942,652 photos uploaded!

WunderBlog® & News

Nearby

Air Quality

  Air Quality AQ Index Pollutant
Not available.

Snow Depth

Station Depth Elevation

Earthquake Activity

City Distance Mag. Time & Date
Minimum magnitude displayed is 2.5.

Coastal Water Temperatures

Place Temperature

Stations

Nearby Weather Stations

Station Location Temp. Windchill Dew Point Humidity Wind Precip. Elev Updated Type
                   

Watches & Warnings

There are currently no watches in effect.